createdAt,value
2018-07-20T00:00:46.849Z,63.73
2018-07-20T00:02:39.866Z,63.54
2018-07-20T00:03:39.812Z,63.54
2018-07-20T00:05:32.821Z,63.82
2018-07-20T00:06:32.777Z,63.73
2018-07-20T00:08:25.633Z,64.12
2018-07-20T00:09:25.605Z,64.02
2018-07-20T00:11:18.457Z,64.31
2018-07-20T00:12:18.396Z,64.40
2018-07-20T00:14:11.394Z,64.69
2018-07-20T00:15:11.367Z,64.40
2018-07-20T00:17:04.204Z,64.47
2018-07-20T00:18:04.143Z,64.12
2018-07-20T00:19:57.000Z,64.95
2018-07-20T00:20:56.953Z,64.95
2018-07-20T00:22:49.975Z,65.33
2018-07-20T00:23:49.938Z,65.33
2018-07-20T00:25:42.967Z,65.24
2018-07-20T00:26:42.918Z,65.43
2018-07-20T00:28:36.154Z,65.53
2018-07-20T00:29:36.075Z,65.43
2018-07-20T00:31:29.088Z,66.58
2018-07-20T00:32:29.059Z,66.39
2018-07-20T00:34:22.068Z,66.88
2018-07-20T00:35:22.026Z,66.74
2018-07-20T00:37:15.071Z,67.03
2018-07-20T00:38:15.024Z,66.84
2018-07-20T00:40:08.037Z,66.84
2018-07-20T00:41:08.008Z,66.74
2018-07-20T00:43:01.280Z,67.71
2018-07-20T00:44:01.158Z,67.71
2018-07-20T00:45:54.217Z,67.90
2018-07-20T00:46:54.168Z,67.71
2018-07-20T00:48:47.332Z,68.09
2018-07-20T00:49:47.307Z,68.48
2018-07-20T00:51:40.312Z,68.67
2018-07-20T00:52:40.264Z,68.15
2018-07-20T00:54:33.268Z,68.44
2018-07-20T00:55:33.223Z,67.86
2018-07-20T00:57:26.060Z,68.63
2018-07-20T00:58:26.012Z,68.44
2018-07-20T01:00:19.008Z,68.63
2018-07-20T01:01:18.978Z,69.02
2018-07-20T01:03:12.199Z,68.83
2018-07-20T01:04:12.149Z,69.40
2018-07-20T01:06:05.244Z,69.40
2018-07-20T01:07:05.190Z,69.12
2018-07-20T01:08:58.176Z,69.12
2018-07-20T01:09:58.143Z,69.12
2018-07-20T01:11:51.423Z,69.12
2018-07-20T01:12:51.303Z,68.98
2018-07-20T01:14:44.287Z,69.40
2018-07-20T01:15:44.268Z,69.37
2018-07-20T01:17:37.256Z,69.66
2018-07-20T01:18:37.226Z,69.75
2018-07-20T01:20:30.639Z,70.14
2018-07-20T01:21:30.035Z,69.85
2018-07-20T01:23:23.096Z,70.14
2018-07-20T01:24:23.039Z,69.95
2018-07-20T01:26:16.061Z,70.14
2018-07-20T01:27:16.010Z,69.95
2018-07-20T01:29:08.850Z,70.14
2018-07-20T01:30:08.815Z,69.95
2018-07-20T01:32:01.788Z,69.75
2018-07-20T01:33:01.605Z,70.14
2018-07-20T01:34:54.611Z,69.95
2018-07-20T01:35:54.583Z,70.81
2018-07-20T01:37:47.584Z,70.90
2018-07-20T01:38:47.536Z,70.58
2018-07-20T01:40:40.436Z,71.39
2018-07-20T01:41:40.409Z,71.39
2018-07-20T01:43:33.439Z,71.00
2018-07-20T01:44:33.383Z,71.16
2018-07-20T01:46:26.383Z,71.45
2018-07-20T01:47:26.349Z,71.35
2018-07-20T01:49:19.213Z,71.55
2018-07-20T01:50:19.170Z,71.83
2018-07-20T01:52:11.994Z,71.73
2018-07-20T01:53:11.949Z,71.45
2018-07-20T01:55:04.961Z,71.93
2018-07-20T01:56:04.909Z,72.02
2018-07-20T01:57:57.737Z,71.93
2018-07-20T01:58:57.735Z,71.83
2018-07-20T02:00:50.520Z,71.83
2018-07-20T02:01:50.466Z,72.89
2018-07-20T02:03:43.315Z,72.79
2018-07-20T02:04:43.257Z,71.83
2018-07-20T02:06:36.280Z,71.93
2018-07-20T02:07:36.235Z,71.93
2018-07-20T02:09:29.245Z,71.80
2018-07-20T02:10:29.256Z,71.83
2018-07-20T02:12:22.011Z,71.83
2018-07-20T02:13:21.980Z,71.98
2018-07-20T02:15:15.110Z,72.08
2018-07-20T02:16:15.058Z,72.18
2018-07-20T02:18:08.057Z,72.02
2018-07-20T02:19:08.051Z,72.75
2018-07-20T02:21:01.312Z,72.18
2018-07-20T02:22:01.153Z,72.37
2018-07-20T02:23:54.160Z,72.47
2018-07-20T02:24:54.106Z,72.75
2018-07-20T02:26:47.105Z,72.95
2018-07-20T02:27:47.062Z,73.24
2018-07-20T02:29:39.980Z,72.66
2018-07-20T02:30:39.927Z,73.04
2018-07-20T02:32:32.921Z,73.72
2018-07-20T02:33:32.885Z,73.72
2018-07-20T02:35:25.896Z,73.91
2018-07-20T02:36:25.846Z,73.62
2018-07-20T02:38:18.951Z,73.33
2018-07-20T02:39:18.808Z,73.33
2018-07-20T02:41:11.816Z,74.29
2018-07-20T02:42:11.772Z,74.06
2018-07-20T02:44:04.590Z,74.68
2018-07-20T02:45:04.551Z,74.87
2018-07-20T02:46:57.738Z,74.83
2018-07-20T02:47:57.681Z,75.40
2018-07-20T02:49:50.697Z,75.21
2018-07-20T02:50:50.626Z,75.31
2018-07-20T02:52:43.645Z,75.31
2018-07-20T02:53:43.621Z,75.50
2018-07-20T02:55:36.560Z,75.31
2018-07-20T02:56:36.510Z,75.40
2018-07-20T02:58:29.489Z,75.02
2018-07-20T02:59:29.459Z,76.07
2018-07-20T03:01:22.284Z,75.89
2018-07-20T03:02:22.249Z,75.60
2018-07-20T03:04:15.242Z,76.07
2018-07-20T03:05:15.207Z,75.79
2018-07-20T03:07:08.234Z,75.98
2018-07-20T03:08:08.192Z,76.07
2018-07-20T03:10:01.248Z,76.07
2018-07-20T03:11:01.203Z,76.07
2018-07-20T03:12:54.439Z,76.27
2018-07-20T03:13:54.309Z,76.32
2018-07-20T03:15:47.331Z,76.42
2018-07-20T03:16:47.285Z,76.52
2018-07-20T03:18:40.103Z,76.90
2018-07-20T03:19:40.078Z,76.62
2018-07-20T03:21:33.231Z,76.71
2018-07-20T03:22:33.170Z,76.65
2018-07-20T03:24:26.180Z,76.84
2018-07-20T03:25:26.145Z,76.84
2018-07-20T03:27:19.197Z,76.52
2018-07-20T03:28:19.150Z,76.52
2018-07-20T03:30:12.207Z,76.52
2018-07-20T03:31:12.148Z,76.37
2018-07-20T03:33:05.158Z,76.27
2018-07-20T03:34:05.113Z,75.98
2018-07-20T03:35:58.349Z,75.89
2018-07-20T03:36:58.224Z,75.79
2018-07-20T03:38:51.234Z,75.98
2018-07-20T03:39:51.173Z,75.89
2018-07-20T03:41:43.994Z,75.98
2018-07-20T03:42:43.984Z,75.50
2018-07-20T03:44:37.215Z,76.07
2018-07-20T03:45:37.101Z,76.17
2018-07-20T03:47:30.106Z,75.89
2018-07-20T03:48:30.101Z,76.07
2018-07-20T03:50:23.090Z,75.98
2018-07-20T03:51:23.030Z,75.79
2018-07-20T03:53:15.884Z,76.07
2018-07-20T03:54:15.834Z,75.79
2018-07-20T03:56:08.833Z,76.37
2018-07-20T03:57:08.800Z,76.46
2018-07-20T03:59:01.803Z,76.75
2018-07-20T04:00:01.789Z,76.46
2018-07-20T04:01:54.670Z,77.13
2018-07-20T04:02:54.530Z,76.84
2018-07-20T04:04:47.656Z,76.94
2018-07-20T04:05:47.591Z,76.56
2018-07-20T04:07:40.576Z,76.46
2018-07-20T04:08:40.602Z,76.62
2018-07-20T04:10:33.836Z,76.90
2018-07-20T04:11:33.674Z,76.94
2018-07-20T04:13:26.656Z,76.84
2018-07-20T04:14:26.624Z,76.84
2018-07-20T04:16:19.632Z,77.58
2018-07-20T04:17:19.580Z,77.38
2018-07-20T04:19:12.597Z,77.04
2018-07-20T04:20:12.471Z,77.29
2018-07-20T04:22:05.331Z,77.19
2018-07-20T04:23:05.247Z,77.76
2018-07-20T04:24:58.241Z,77.67
2018-07-20T04:25:58.197Z,77.86
2018-07-20T04:27:51.167Z,77.76
2018-07-20T04:28:51.133Z,77.67
2018-07-20T04:30:44.053Z,77.19
2018-07-20T04:31:43.946Z,77.19
2018-07-20T04:33:36.777Z,77.19
2018-07-20T04:34:36.721Z,77.19
2018-07-20T04:36:29.907Z,77.38
2018-07-20T04:37:29.700Z,77.09
2018-07-20T04:39:22.542Z,77.86
2018-07-20T04:40:22.510Z,77.76
2018-07-20T04:42:15.342Z,78.05
2018-07-20T04:43:15.283Z,78.05
2018-07-20T04:45:08.093Z,77.86
2018-07-20T04:46:08.062Z,78.05
2018-07-20T04:48:01.069Z,78.53
2018-07-20T04:49:01.024Z,78.44
2018-07-20T04:50:54.038Z,78.15
2018-07-20T04:51:53.978Z,78.53
2018-07-20T04:53:46.808Z,78.34
2018-07-20T04:54:46.764Z,78.34
2018-07-20T04:56:39.775Z,78.63
2018-07-20T04:57:39.719Z,78.25
2018-07-20T04:59:32.776Z,78.63
2018-07-20T05:00:32.771Z,78.63
2018-07-20T05:02:25.961Z,79.01
2018-07-20T05:03:25.838Z,78.53
2018-07-20T05:05:18.823Z,78.63
2018-07-20T05:06:18.788Z,78.82
2018-07-20T05:08:11.798Z,78.92
2018-07-20T05:09:11.754Z,78.53
2018-07-20T05:11:04.572Z,78.63
2018-07-20T05:12:04.537Z,78.72
2018-07-20T05:13:57.584Z,78.53
2018-07-20T05:14:57.481Z,78.63
2018-07-20T05:16:50.512Z,78.53
2018-07-20T05:17:50.467Z,78.53
2018-07-20T05:19:43.627Z,78.72
2018-07-20T05:20:43.572Z,78.25
2018-07-20T05:22:36.604Z,78.28
2018-07-20T05:23:36.550Z,79.14
2018-07-20T05:25:29.537Z,78.57
2018-07-20T05:26:29.483Z,78.47
2018-07-20T05:28:22.499Z,78.57
2018-07-20T05:29:22.329Z,78.47
2018-07-20T05:31:15.136Z,78.67
2018-07-20T05:32:15.106Z,78.67
2018-07-20T05:34:08.153Z,78.28
2018-07-20T05:35:08.196Z,78.28
2018-07-20T05:37:01.370Z,78.57
2018-07-20T05:38:01.245Z,78.67
2018-07-20T05:39:54.243Z,78.47
2018-07-20T05:40:54.190Z,78.47
2018-07-20T05:42:47.176Z,78.47
2018-07-20T05:43:47.148Z,78.28
2018-07-20T05:45:40.014Z,78.47
2018-07-20T05:46:39.966Z,78.19
2018-07-20T05:48:32.956Z,77.71
2018-07-20T05:49:32.942Z,77.80
2018-07-20T05:51:25.953Z,78.67
2018-07-20T05:52:25.909Z,78.61
2018-07-20T05:54:19.094Z,78.03
2018-07-20T05:55:18.984Z,78.13
2018-07-20T05:57:12.000Z,78.13
2018-07-20T05:58:11.979Z,77.75
2018-07-20T06:00:04.971Z,77.26
2018-07-20T06:01:04.923Z,77.75
2018-07-20T06:02:57.769Z,76.88
2018-07-20T06:03:57.778Z,76.98
2018-07-20T06:05:50.782Z,75.82
2018-07-20T06:06:50.755Z,76.02
2018-07-20T06:08:43.729Z,76.12
2018-07-20T06:09:43.690Z,76.21
2018-07-20T06:11:36.646Z,76.50
2018-07-20T06:12:36.597Z,76.31
2018-07-20T06:14:29.573Z,76.64
2018-07-20T06:15:29.543Z,76.34
2018-07-20T06:17:22.395Z,76.34
2018-07-20T06:18:22.355Z,76.82
2018-07-20T06:20:15.655Z,76.54
2018-07-20T06:21:15.480Z,75.87
2018-07-20T06:23:08.681Z,75.32
2018-07-20T06:24:08.649Z,75.62
2018-07-20T06:26:01.892Z,75.04
2018-07-20T06:27:01.716Z,74.55
2018-07-20T06:28:54.728Z,74.94
2018-07-20T06:29:54.736Z,74.55
2018-07-20T06:31:47.702Z,74.75
2018-07-20T06:32:47.652Z,74.46
2018-07-20T06:34:40.486Z,74.37
2018-07-20T06:35:40.447Z,74.50
2018-07-20T06:37:33.449Z,74.08
2018-07-20T06:38:33.401Z,74.60
2018-07-20T06:40:26.435Z,74.02
2018-07-20T06:41:26.387Z,74.11
2018-07-20T06:43:19.534Z,73.73
2018-07-20T06:44:19.476Z,73.63
2018-07-20T06:46:12.490Z,73.92
2018-07-20T06:47:12.440Z,74.11
2018-07-20T06:49:05.426Z,73.57
2018-07-20T06:50:05.393Z,73.19
2018-07-20T06:51:58.271Z,72.90
2018-07-20T06:52:58.222Z,73.09
2018-07-20T06:54:51.208Z,73.19
2018-07-20T06:55:51.226Z,72.52
2018-07-20T06:57:44.190Z,72.71
2018-07-20T06:58:44.133Z,72.80
2018-07-20T07:00:37.316Z,71.84
2018-07-20T07:01:37.238Z,71.97
2018-07-20T07:03:30.252Z,71.49
2018-07-20T07:04:30.197Z,71.97
2018-07-20T07:06:23.181Z,71.30
2018-07-20T07:07:23.142Z,72.07
2018-07-20T07:09:16.189Z,71.43
2018-07-20T07:10:16.143Z,71.34
2018-07-20T07:12:09.144Z,71.34
2018-07-20T07:13:09.136Z,70.76
2018-07-20T07:15:02.250Z,70.76
2018-07-20T07:16:02.206Z,70.56
2018-07-20T07:17:55.234Z,70.37
2018-07-20T07:18:55.197Z,70.18
2018-07-20T07:20:48.179Z,69.70
2018-07-20T07:21:48.137Z,69.73
2018-07-20T07:23:41.112Z,68.87
2018-07-20T07:24:41.022Z,68.87
2018-07-20T07:26:34.000Z,68.68
2018-07-20T07:27:33.963Z,68.58
2018-07-20T07:29:26.797Z,68.38
2018-07-20T07:30:26.759Z,68.00
2018-07-20T07:32:19.569Z,68.77
2018-07-20T07:33:19.584Z,68.48
2018-07-20T07:35:12.828Z,68.23
2018-07-20T07:36:12.650Z,68.19
2018-07-20T07:38:05.499Z,67.94
2018-07-20T07:39:05.439Z,67.74
2018-07-20T07:40:58.528Z,67.55
2018-07-20T07:41:58.503Z,66.69
2018-07-20T07:43:51.354Z,66.11
2018-07-20T07:44:51.310Z,65.81
2018-07-20T07:46:44.304Z,65.53
2018-07-20T07:47:44.270Z,65.81
2018-07-20T07:49:37.319Z,66.43
2018-07-20T07:50:37.258Z,65.75
2018-07-20T07:52:30.413Z,65.37
2018-07-20T07:53:30.374Z,64.89
2018-07-20T07:55:23.404Z,64.31
2018-07-20T07:56:23.352Z,64.15
2018-07-20T07:58:16.331Z,64.02
2018-07-20T07:59:16.306Z,64.43
2018-07-20T08:01:09.414Z,63.85
2018-07-20T08:02:09.335Z,64.05
2018-07-20T08:04:02.335Z,63.37
2018-07-20T08:05:02.295Z,62.99
2018-07-20T08:06:55.515Z,63.18
2018-07-20T08:07:55.410Z,63.67
2018-07-20T08:09:48.492Z,62.12
2018-07-20T08:10:48.370Z,62.82
2018-07-20T08:12:41.350Z,61.86
2018-07-20T08:13:41.324Z,61.96
2018-07-20T08:15:34.201Z,62.05
2018-07-20T08:16:34.147Z,61.96
2018-07-20T08:18:27.131Z,61.86
2018-07-20T08:19:27.116Z,61.96
2018-07-20T08:21:19.946Z,61.19
2018-07-20T08:22:19.897Z,60.83
2018-07-20T08:24:12.867Z,60.35
2018-07-20T08:25:12.846Z,60.54
2018-07-20T08:27:05.714Z,60.06
2018-07-20T08:28:05.665Z,60.35
2018-07-20T08:29:58.687Z,60.35
2018-07-20T08:30:58.623Z,60.06
2018-07-20T08:32:51.646Z,59.60
2018-07-20T08:33:51.620Z,60.57
2018-07-20T08:35:44.755Z,59.41
2018-07-20T08:36:44.697Z,59.22
2018-07-20T08:38:37.705Z,59.34
2018-07-20T08:39:37.756Z,59.31
2018-07-20T08:41:30.912Z,58.76
2018-07-20T08:42:30.810Z,58.28
2018-07-20T08:44:23.810Z,58.28
2018-07-20T08:45:23.785Z,58.57
2018-07-20T08:47:16.815Z,57.63
2018-07-20T08:48:16.757Z,56.67
2018-07-20T08:50:09.585Z,56.67
2018-07-20T08:51:09.558Z,56.86
2018-07-20T08:53:02.454Z,55.89
2018-07-20T08:54:02.369Z,55.24
2018-07-20T08:55:55.393Z,53.59
2018-07-20T08:56:55.332Z,53.50
2018-07-20T08:58:48.341Z,52.73
2018-07-20T08:59:48.304Z,52.44
2018-07-20T09:01:41.286Z,52.53
2018-07-20T09:02:41.099Z,52.27
2018-07-20T09:04:34.111Z,52.27
2018-07-20T09:05:34.084Z,51.10
2018-07-20T09:07:27.106Z,51.50
2018-07-20T09:08:27.067Z,51.30
2018-07-20T09:10:19.893Z,50.72
2018-07-20T09:11:19.864Z,50.84
2018-07-20T09:13:12.882Z,50.16
2018-07-20T09:14:12.829Z,50.45
2018-07-20T09:16:05.826Z,49.97
2018-07-20T09:17:05.802Z,50.16
2018-07-20T09:18:59.013Z,49.77
2018-07-20T09:19:58.923Z,49.77
2018-07-20T09:21:51.946Z,50.74
2018-07-20T09:22:51.907Z,49.22
2018-07-20T09:24:44.985Z,48.64
2018-07-20T09:25:44.923Z,49.12
2018-07-20T09:27:37.973Z,48.83
2018-07-20T09:28:37.938Z,48.64
2018-07-20T09:30:30.952Z,48.25
2018-07-20T09:31:30.990Z,48.76
2018-07-20T09:33:24.737Z,48.85
2018-07-20T09:34:24.126Z,48.85
2018-07-20T09:36:17.319Z,48.27
2018-07-20T09:37:17.119Z,48.27
2018-07-20T09:39:10.362Z,47.98
2018-07-20T09:40:10.278Z,48.27
2018-07-20T09:42:03.472Z,48.10
2018-07-20T09:43:03.573Z,47.23
2018-07-20T09:44:56.227Z,46.07
2018-07-20T09:45:56.201Z,45.97
2018-07-20T09:47:49.195Z,46.67
2018-07-20T09:48:49.174Z,46.58
2018-07-20T09:50:42.619Z,46.28
2018-07-20T09:51:42.261Z,46.38
2018-07-20T09:53:35.385Z,45.99
2018-07-20T09:54:35.343Z,46.48
2018-07-20T09:56:28.160Z,46.31
2018-07-20T09:57:28.131Z,45.72
2018-07-20T09:59:21.192Z,45.43
2018-07-20T10:00:21.109Z,45.62
2018-07-20T10:02:14.310Z,45.17
2018-07-20T10:03:14.281Z,45.07
2018-07-20T10:05:07.381Z,43.80
2018-07-20T10:06:07.267Z,43.24
2018-07-20T10:08:00.471Z,42.27
2018-07-20T10:09:00.399Z,42.02
2018-07-20T10:10:53.438Z,39.70
2018-07-20T10:11:53.524Z,39.14
2018-07-20T10:13:46.244Z,38.42
2018-07-20T10:14:46.211Z,37.77
2018-07-20T10:16:39.071Z,35.95
2018-07-20T10:17:39.019Z,34.60
2018-07-20T10:19:32.047Z,33.09
2018-07-20T10:20:32.031Z,32.27
2018-07-20T10:22:24.883Z,32.58
2018-07-20T10:23:24.849Z,31.83
2018-07-20T10:25:17.981Z,30.74
2018-07-20T10:26:17.947Z,30.67
2018-07-20T10:28:10.995Z,29.41
2018-07-20T10:29:10.966Z,29.62
2018-07-20T10:31:04.051Z,29.02
2018-07-20T10:32:04.027Z,28.83
2018-07-20T10:33:56.860Z,28.25
2018-07-20T10:34:56.835Z,28.45
2018-07-20T10:36:49.911Z,27.18
2018-07-20T10:37:49.869Z,27.29
2018-07-20T10:39:42.927Z,27.29
2018-07-20T10:40:42.916Z,26.90
2018-07-20T10:42:35.976Z,26.41
2018-07-20T10:43:35.941Z,27.11
2018-07-20T10:45:28.995Z,26.40
2018-07-20T10:46:28.959Z,27.00
2018-07-20T10:48:22.157Z,26.52
2018-07-20T10:49:22.118Z,25.93
2018-07-20T10:51:15.002Z,25.94
2018-07-20T10:52:14.981Z,25.52
2018-07-20T10:54:08.005Z,25.24
2018-07-20T10:55:07.986Z,25.65
2018-07-20T10:57:00.992Z,25.27
2018-07-20T10:58:00.835Z,25.94
2018-07-20T10:59:53.688Z,25.74
2018-07-20T11:00:53.647Z,25.85
2018-07-20T11:02:46.707Z,26.17
2018-07-20T11:03:46.701Z,25.84
2018-07-20T11:05:39.866Z,26.32
2018-07-20T11:06:39.878Z,26.31
2018-07-20T11:08:32.910Z,26.42
2018-07-20T11:09:32.875Z,26.62
2018-07-20T11:11:26.146Z,26.32
2018-07-20T11:12:26.091Z,25.84
2018-07-20T11:14:19.138Z,26.04
2018-07-20T11:15:19.112Z,26.05
2018-07-20T11:17:12.322Z,24.69
2018-07-20T11:18:12.287Z,25.09
2018-07-20T11:20:05.346Z,24.12
2018-07-20T11:21:05.348Z,23.94
2018-07-20T11:22:58.652Z,23.74
2018-07-20T11:23:58.616Z,24.13
2018-07-20T11:25:51.637Z,23.93
2018-07-20T11:26:51.619Z,23.73
2018-07-20T11:28:44.478Z,24.29
2018-07-20T11:29:44.452Z,24.98
2018-07-20T11:31:37.505Z,25.48
2018-07-20T11:32:37.485Z,25.18
2018-07-20T11:34:30.556Z,25.17
2018-07-20T11:35:30.519Z,25.46
2018-07-20T11:37:23.453Z,25.85
2018-07-20T11:38:23.421Z,25.65
2018-07-20T11:40:16.503Z,25.46
2018-07-20T11:41:16.468Z,24.59
2018-07-20T11:43:09.530Z,24.70
2018-07-20T11:44:09.489Z,24.22
2018-07-20T11:46:02.482Z,24.98
2018-07-20T11:47:02.339Z,25.08
2018-07-20T11:48:55.393Z,24.41
2018-07-20T11:49:55.354Z,23.72
2018-07-20T11:51:48.189Z,24.33
2018-07-20T11:52:48.181Z,22.96
2018-07-20T11:54:41.562Z,23.53
2018-07-20T11:55:41.523Z,23.64
2018-07-20T11:57:34.559Z,23.71
2018-07-20T11:58:34.557Z,24.29
2018-07-20T12:00:27.434Z,24.01
2018-07-20T12:01:27.419Z,23.24
2018-07-20T12:03:20.449Z,23.35
2018-07-20T12:04:20.407Z,22.74
2018-07-20T12:06:13.523Z,22.93
2018-07-20T12:07:13.424Z,23.43
2018-07-20T12:09:06.503Z,23.32
2018-07-20T12:10:06.472Z,23.14
2018-07-20T12:11:59.340Z,22.45
2018-07-20T12:12:59.305Z,23.79
2018-07-20T12:14:52.531Z,23.97
2018-07-20T12:15:52.458Z,23.89
2018-07-20T12:17:45.524Z,23.21
2018-07-20T12:18:45.499Z,23.02
2018-07-20T12:20:38.549Z,24.07
2018-07-20T12:21:38.518Z,22.82
2018-07-20T12:23:31.593Z,25.18
2018-07-20T12:24:31.575Z,24.02
2018-07-20T12:26:24.655Z,22.16
2018-07-20T12:27:24.613Z,22.35
2018-07-20T12:29:17.751Z,23.21
2018-07-20T12:30:17.733Z,23.53
2018-07-20T12:32:10.589Z,22.78
2018-07-20T12:33:10.578Z,21.50
2018-07-20T12:35:03.403Z,20.81
2018-07-20T12:36:03.378Z,20.90
2018-07-20T12:37:56.589Z,20.91
2018-07-20T12:38:56.549Z,21.22
2018-07-20T12:40:49.661Z,20.73
2018-07-20T12:41:49.619Z,20.44
2018-07-20T12:43:42.759Z,19.95
2018-07-20T12:44:42.711Z,19.85
2018-07-20T12:46:35.784Z,20.24
2018-07-20T12:47:35.764Z,20.24
2018-07-20T12:49:28.843Z,20.34
2018-07-20T12:50:28.844Z,20.34
2018-07-20T12:52:21.885Z,21.02
2018-07-20T12:53:21.847Z,20.83
2018-07-20T12:55:14.879Z,21.13
2018-07-20T12:56:14.857Z,20.53
2018-07-20T12:58:07.939Z,20.33
2018-07-20T12:59:07.897Z,20.81
2018-07-20T13:01:01.028Z,20.81
2018-07-20T13:02:01.016Z,21.00
2018-07-20T13:03:53.902Z,20.92
2018-07-20T13:04:53.840Z,20.62
2018-07-20T13:06:46.761Z,20.91
2018-07-20T13:07:46.661Z,21.31
2018-07-20T13:09:39.748Z,21.78
2018-07-20T13:10:39.707Z,21.88
2018-07-20T13:12:33.001Z,21.32
2018-07-20T13:13:32.867Z,21.23
2018-07-20T13:15:25.927Z,20.92
2018-07-20T13:16:25.903Z,20.91
2018-07-20T13:18:19.213Z,21.19
2018-07-20T13:19:19.075Z,21.39
2018-07-20T13:21:11.917Z,21.29
2018-07-20T13:22:11.886Z,21.59
2018-07-20T13:24:04.953Z,21.09
2018-07-20T13:25:04.912Z,21.19
2018-07-20T13:26:58.043Z,22.05
2018-07-20T13:27:58.020Z,22.25
2018-07-20T13:29:51.118Z,21.48
2018-07-20T13:30:51.067Z,21.47
2018-07-20T13:32:44.323Z,21.19
2018-07-20T13:33:44.296Z,21.48
2018-07-20T13:35:37.351Z,21.48
2018-07-20T13:36:37.331Z,21.30
2018-07-20T13:38:30.542Z,21.98
2018-07-20T13:39:30.507Z,21.87
2018-07-20T13:41:24.993Z,21.39
2018-07-20T13:42:23.602Z,21.30
2018-07-20T13:44:16.792Z,21.10
2018-07-20T13:45:16.781Z,20.99
2018-07-20T13:47:09.623Z,21.95
2018-07-20T13:48:09.584Z,22.34
2018-07-20T13:50:02.457Z,22.34
2018-07-20T13:51:02.417Z,22.55
2018-07-20T13:52:55.661Z,22.63
2018-07-20T13:53:55.567Z,23.03
2018-07-20T13:55:48.628Z,22.53
2018-07-20T13:56:48.583Z,22.93
2018-07-20T13:58:41.442Z,22.24
2018-07-20T13:59:41.403Z,22.42
2018-07-20T14:01:34.297Z,22.62
2018-07-20T14:02:34.253Z,23.42
2018-07-20T14:04:27.613Z,22.24
2018-07-20T14:05:27.588Z,22.24
2018-07-20T14:07:20.487Z,22.52
2018-07-20T14:08:20.468Z,22.73
2018-07-20T14:10:13.334Z,22.44
2018-07-20T14:11:13.283Z,22.53
2018-07-20T14:13:06.334Z,22.56
2018-07-20T14:14:06.328Z,21.36
2018-07-20T14:15:59.533Z,21.86
2018-07-20T14:16:59.485Z,22.45
2018-07-20T14:18:52.550Z,21.45
2018-07-20T14:19:52.537Z,22.14
2018-07-20T14:21:45.769Z,21.67
2018-07-20T14:22:45.713Z,20.97
2018-07-20T14:24:38.754Z,21.87
2018-07-20T14:25:38.853Z,21.29
2018-07-20T14:27:31.550Z,21.08
2018-07-20T14:28:31.555Z,20.70
2018-07-20T14:30:24.408Z,21.84
2018-07-20T14:31:24.418Z,22.24
2018-07-20T14:33:17.403Z,22.05
2018-07-20T14:34:17.386Z,22.13
2018-07-20T14:36:10.469Z,22.33
2018-07-20T14:37:10.430Z,22.03
2018-07-20T14:39:03.285Z,22.03
2018-07-20T14:40:03.371Z,22.31
2018-07-20T14:41:56.328Z,22.42
2018-07-20T14:42:56.308Z,22.23
2018-07-20T14:44:49.353Z,21.84
2018-07-20T14:45:49.431Z,22.23
2018-07-20T14:47:42.441Z,22.33
2018-07-20T14:48:42.390Z,22.52
2018-07-20T14:50:35.459Z,22.05
2018-07-20T14:51:35.407Z,21.94
2018-07-20T14:53:28.615Z,22.22
2018-07-20T14:54:28.568Z,22.41
2018-07-20T14:56:21.619Z,22.60
2018-07-20T14:57:21.575Z,22.41
2018-07-20T14:59:14.761Z,22.50
2018-07-20T15:00:14.719Z,22.99
2018-07-20T15:02:07.579Z,23.47
2018-07-20T15:03:07.551Z,23.28
2018-07-20T15:05:00.591Z,22.69
2018-07-20T15:06:00.560Z,22.98
2018-07-20T15:07:53.415Z,22.69
2018-07-20T15:08:53.381Z,23.35
2018-07-20T15:10:46.444Z,23.93
2018-07-20T15:11:46.406Z,25.28
2018-07-20T15:13:39.484Z,26.14
2018-07-20T15:14:39.440Z,26.25
2018-07-20T15:16:32.354Z,25.48
2018-07-20T15:17:32.306Z,25.28
2018-07-20T15:19:25.381Z,25.67
2018-07-20T15:20:25.356Z,25.67
2018-07-20T15:22:18.212Z,26.25
2018-07-20T15:23:18.172Z,26.05
2018-07-20T15:25:11.001Z,26.43
2018-07-20T15:26:10.972Z,26.61
2018-07-20T15:28:04.067Z,26.90
2018-07-20T15:29:04.046Z,26.81
2018-07-20T15:30:57.093Z,27.00
2018-07-20T15:31:57.062Z,26.81
2018-07-20T15:33:50.092Z,26.61
2018-07-20T15:34:50.030Z,26.92
2018-07-20T15:36:43.050Z,26.33
2018-07-20T15:37:43.027Z,27.21
2018-07-20T15:39:36.165Z,27.31
2018-07-20T15:40:36.016Z,27.31
2018-07-20T15:42:28.913Z,27.11
2018-07-20T15:43:28.935Z,27.49
2018-07-20T15:45:21.922Z,27.59
2018-07-20T15:46:21.969Z,27.69
2018-07-20T15:48:15.275Z,27.58
2018-07-20T15:49:15.177Z,27.56
2018-07-20T15:51:08.207Z,28.25
2018-07-20T15:54:01.599Z,28.15
2018-07-20T15:55:01.335Z,27.37
2018-07-20T15:56:54.376Z,27.66
2018-07-20T15:57:54.369Z,28.05
2018-07-20T15:59:47.575Z,28.23
2018-07-20T16:00:47.396Z,28.03
2018-07-20T16:02:40.214Z,27.83
2018-07-20T16:03:40.184Z,28.03
2018-07-20T16:05:33.048Z,27.25
2018-07-20T16:06:32.980Z,27.45
2018-07-20T16:08:27.342Z,28.04
2018-07-20T16:09:27.278Z,27.26
2018-07-20T16:11:20.136Z,27.36
2018-07-20T16:12:20.083Z,27.45
2018-07-20T16:14:12.934Z,27.26
2018-07-20T16:15:12.907Z,27.15
2018-07-20T16:17:06.024Z,27.54
2018-07-20T16:18:05.929Z,27.64
2018-07-20T16:19:58.836Z,27.62
2018-07-20T16:20:58.802Z,27.42
2018-07-20T16:22:51.931Z,28.00
2018-07-20T16:23:51.818Z,28.29
2018-07-20T16:25:44.774Z,28.18
2018-07-20T16:26:44.619Z,28.67
2018-07-20T16:28:37.855Z,28.77
2018-07-20T16:29:37.788Z,28.57
2018-07-20T16:31:30.814Z,28.57
2018-07-20T16:32:30.773Z,28.38
2018-07-20T16:34:23.809Z,28.36
2018-07-20T16:35:23.773Z,28.65
2018-07-20T16:37:16.643Z,28.15
2018-07-20T16:38:16.585Z,28.53
2018-07-20T16:40:09.409Z,28.43
2018-07-20T16:41:09.411Z,28.53
2018-07-20T16:43:02.435Z,28.14
2018-07-20T16:44:02.438Z,28.61
2018-07-20T16:45:55.633Z,34.53
2018-07-20T16:46:55.527Z,35.89
2018-07-20T16:48:48.570Z,38.31
2018-07-20T16:49:48.540Z,38.96
2018-07-20T16:51:41.537Z,39.28
2018-07-20T16:52:41.515Z,39.55
2018-07-20T16:54:34.571Z,38.96
2018-07-20T16:55:34.504Z,38.29
2018-07-20T16:57:27.541Z,38.27
2018-07-20T16:58:27.496Z,38.46
2018-07-20T17:00:20.687Z,39.24
2018-07-20T17:01:20.629Z,39.90
2018-07-20T17:03:13.826Z,40.66
2018-07-20T17:04:13.789Z,40.95
2018-07-20T17:06:06.969Z,40.36
2018-07-20T17:07:06.944Z,40.66
2018-07-20T17:09:00.059Z,40.66
2018-07-20T17:10:00.001Z,40.95
2018-07-20T17:11:53.191Z,40.66
2018-07-20T17:12:53.160Z,41.41
2018-07-20T17:14:46.258Z,41.89
2018-07-20T17:15:46.201Z,41.99
2018-07-20T17:17:39.388Z,42.38
2018-07-20T17:18:39.359Z,43.26
2018-07-20T17:20:32.463Z,43.16
2018-07-20T17:21:32.411Z,43.54
2018-07-20T17:23:25.576Z,44.01
2018-07-20T17:24:25.545Z,44.49
2018-07-20T17:26:18.593Z,44.49
2018-07-20T17:27:18.647Z,44.88
2018-07-20T17:29:11.841Z,43.91
2018-07-20T17:30:11.689Z,43.52
2018-07-20T17:32:05.028Z,43.72
2018-07-20T17:33:04.981Z,43.43
2018-07-20T17:34:57.908Z,42.94
2018-07-20T17:35:57.876Z,43.13
2018-07-20T17:37:50.934Z,44.20
2018-07-20T17:38:50.881Z,43.82
2018-07-20T17:40:43.916Z,44.59
2018-07-20T17:41:43.876Z,44.98
2018-07-20T17:43:36.696Z,44.49
2018-07-20T17:44:36.676Z,44.68
2018-07-20T17:46:29.880Z,44.68
2018-07-20T17:47:29.815Z,44.59
2018-07-20T17:49:22.852Z,45.83
2018-07-20T17:50:22.817Z,45.73
2018-07-20T17:52:15.772Z,46.70
2018-07-20T17:53:15.618Z,46.80
2018-07-20T17:55:08.682Z,47.28
2018-07-20T17:56:08.628Z,47.09
2018-07-20T17:58:01.687Z,46.99
2018-07-20T17:59:01.637Z,47.09
2018-07-20T18:00:54.709Z,47.57
2018-07-20T18:01:54.657Z,47.77
2018-07-20T18:03:47.723Z,47.96
2018-07-20T18:04:47.717Z,47.96
2018-07-20T18:06:40.925Z,48.25
2018-07-20T18:07:40.811Z,48.25
2018-07-20T18:09:33.648Z,47.96
2018-07-20T18:10:33.616Z,48.25
2018-07-20T18:12:26.691Z,47.96
2018-07-20T18:13:26.642Z,48.15
2018-07-20T18:15:19.821Z,47.77
2018-07-20T18:16:19.771Z,47.77
2018-07-20T18:18:12.833Z,47.09
2018-07-20T18:19:12.781Z,46.99
2018-07-20T18:21:05.983Z,47.38
2018-07-20T18:22:05.972Z,46.80
2018-07-20T18:23:59.014Z,46.99
2018-07-20T18:24:58.946Z,46.41
2018-07-20T18:26:52.253Z,46.43
2018-07-20T18:27:52.069Z,46.62
2018-07-20T18:29:45.115Z,46.43
2018-07-20T18:30:45.078Z,46.53
2018-07-20T18:32:38.103Z,46.72
2018-07-20T18:33:38.099Z,46.82
2018-07-20T18:35:31.143Z,46.33